Time;durP1;ratioP1;P1;durP2;ratioP2;P2;SDS_P1;SDS_P2;PMS_P1;PMS_P2;Temp;Humidity;BMP_temperature;BMP_pressure;BME280_temperature;BME280_humidity;BME280_pressure;Samples;Min_cycle;Max_cycle;Signal;HPM_P1;HPM_P2
2021/12/08 00:01:31;;;;;;;3.77;3.27;;;;;;;0.82;68.18;94349.03;4981258;28;20196;-85
2021/12/08 00:03:57;;;;;;;4.87;3.37;;;;;;;0.80;68.37;94338.25;4981366;28;20714;-85
2021/12/08 00:06:26;;;;;;;3.50;3.20;;;;;;;0.75;68.12;94320.97;4980638;28;20626;-85
2021/12/08 00:09:16;;;;;;;3.53;3.20;;;;;;;0.60;68.89;94332.56;4980605;28;20229;-84
2021/12/08 00:14:28;;;;;;;4.47;3.57;;;;;;;0.53;69.32;94318.91;4962799;28;20788;-85
2021/12/08 00:16:55;;;;;;;5.13;3.40;;;;;;;0.52;69.28;94324.91;4979862;28;20200;-85
2021/12/08 00:19:22;;;;;;;3.70;3.30;;;;;;;0.50;69.40;94324.28;4979832;28;20228;-84
2021/12/08 00:21:50;;;;;;;4.73;3.43;;;;;;;0.57;69.23;94310.88;4979913;28;20197;-85
2021/12/08 00:24:21;;;;;;;6.13;3.60;;;;;;;0.60;69.44;94312.31;4980017;28;20232;-85
2021/12/08 00:26:50;;;;;;;3.67;3.37;;;;;;;0.48;69.25;94299.09;4980573;28;20196;-85
2021/12/08 00:29:16;;;;;;;3.97;3.57;;;;;;;0.34;69.35;94285.22;4979486;28;20631;-85
2021/12/08 00:31:47;;;;;;;4.47;3.57;;;;;;;0.34;69.90;94290.28;4979670;28;20261;-85
2021/12/08 00:34:16;;;;;;;3.73;3.43;;;;;;;0.47;69.14;94292.44;4979703;28;20208;-84
2021/12/08 00:36:47;;;;;;;4.03;3.20;;;;;;;0.50;68.75;94271.09;4980378;28;20204;-85
2021/12/08 00:39:14;;;;;;;3.50;3.20;;;;;;;0.47;69.29;94269.66;4979224;28;20719;-84
2021/12/08 00:41:42;;;;;;;3.63;3.00;;;;;;;0.47;69.22;94266.31;4979660;28;20200;-85
2021/12/08 00:44:12;;;;;;;4.47;3.60;;;;;;;0.39;69.52;94269.59;4978577;28;20272;-85
2021/12/08 00:46:38;;;;;;;4.37;3.97;;;;;;;0.54;69.35;94274.94;4978914;28;20671;-84
2021/12/08 00:49:18;;;;;;;4.30;3.67;;;;;;;0.55;68.57;94272.25;4980059;28;20212;-85
2021/12/08 00:51:49;;;;;;;4.53;3.40;;;;;;;0.65;68.64;94270.41;4979015;28;20235;-84
2021/12/08 00:54:18;;;;;;;5.53;3.10;;;;;;;0.65;68.72;94262.00;4979788;28;20359;-85
2021/12/08 00:56:45;;;;;;;4.57;3.97;;;;;;;0.70;68.18;94257.31;4980117;28;20204;-85
2021/12/08 00:59:16;;;;;;;4.40;3.40;;;;;;;0.67;68.23;94250.81;4971659;28;20972;-85
2021/12/08 01:01:43;;;;;;;4.40;3.40;;;;;;;0.61;68.32;94251.38;4991879;28;20200;-85
2021/12/08 01:04:12;;;;;;;3.53;3.23;;;;;;;0.66;68.17;94259.34;4979713;28;20228;-86
2021/12/08 01:06:43;;;;;;;4.03;3.50;;;;;;;0.67;68.07;94263.47;4959961;28;20216;-85
2021/12/08 01:09:18;;;;;;;4.23;3.37;;;;;;;0.74;67.69;94253.53;4959752;28;20213;-85
2021/12/08 01:11:45;;;;;;;5.77;3.63;;;;;;;0.78;67.94;94259.06;4978561;28;20202;-84
2021/12/08 01:14:13;;;;;;;3.90;3.50;;;;;;;0.62;68.07;94255.50;4979282;28;20224;-85
2021/12/08 01:16:41;;;;;;;3.70;3.30;;;;;;;0.67;67.99;94252.53;4978739;28;20211;-85
2021/12/08 01:19:10;;;;;;;3.67;3.27;;;;;;;0.65;68.07;94251.88;4981941;28;20204;-85
2021/12/08 01:21:38;;;;;;;3.93;3.27;;;;;;;0.64;68.26;94246.03;4985217;28;20575;-86
2021/12/08 01:24:07;;;;;;;4.30;3.57;;;;;;;0.70;68.33;94247.19;4978411;28;20231;-85
2021/12/08 01:26:34;;;;;;;3.97;3.20;;;;;;;0.84;68.08;94254.22;4978497;28;20204;-85
2021/12/08 01:29:08;;;;;;;3.67;3.23;;;;;;;0.90;67.72;94248.56;4978268;28;20207;-85
2021/12/08 01:31:40;;;;;;;4.50;3.60;;;;;;;0.96;67.27;94253.00;4979587;28;20199;-85
2021/12/08 01:34:15;;;;;;;3.97;3.30;;;;;;;1.00;67.29;94246.69;4980413;28;20627;-85
2021/12/08 01:36:44;;;;;;;3.93;3.30;;;;;;;1.01;67.32;94238.16;4979220;28;20220;-85
2021/12/08 01:39:11;;;;;;;3.77;3.07;;;;;;;0.95;67.06;94235.44;4979104;28;20268;-85
2021/12/08 01:41:39;;;;;;;3.90;3.20;;;;;;;0.83;67.15;94239.16;4979376;28;20204;-85
2021/12/08 01:46:52;;;;;;;3.67;3.23;;;;;;;0.71;67.79;94223.44;4978973;28;20211;-85
2021/12/08 01:49:21;;;;;;;3.27;2.97;;;;;;;0.70;67.49;94224.38;4972194;28;20238;-85
2021/12/08 01:51:50;;;;;;;3.03;2.60;;;;;;;0.74;67.51;94222.34;4990324;28;20220;-85
2021/12/08 01:54:20;;;;;;;3.87;2.80;;;;;;;0.79;67.18;94232.81;4979522;28;20221;-86
2021/12/08 01:56:48;;;;;;;3.30;2.83;;;;;;;0.86;67.16;94224.47;4979024;28;20235;-85
2021/12/08 01:59:15;;;;;;;2.97;2.67;;;;;;;0.87;66.90;94218.44;4979039;28;20231;-85
2021/12/08 02:01:48;;;;;;;5.47;3.10;;;;;;;0.87;66.96;94225.25;4979161;28;20208;-86
2021/12/08 02:04:20;;;;;;;3.47;3.00;;;;;;;0.83;66.31;94218.91;4978809;28;20239;-85
2021/12/08 02:06:53;;;;;;;3.47;2.80;;;;;;;0.81;66.89;94211.44;4978920;28;20271;-85
2021/12/08 02:09:28;;;;;;;3.40;2.80;;;;;;;0.86;67.07;94208.47;4977955;28;20247;-85
2021/12/08 02:11:56;;;;;;;3.13;2.57;;;;;;;1.00;67.07;94207.88;4959253;28;20204;-85
2021/12/08 02:14:40;;;;;;;3.20;2.90;;;;;;;1.14;67.02;94216.69;4971419;28;20220;-85
2021/12/08 02:17:10;;;;;;;3.50;3.20;;;;;;;1.19;66.16;94214.47;4978582;28;20655;-85
2021/12/08 02:19:39;;;;;;;3.60;2.80;;;;;;;1.28;65.78;94203.41;4973844;28;20317;-85
2021/12/08 02:22:09;;;;;;;3.27;2.87;;;;;;;1.26;65.28;94205.31;4987243;28;20231;-86
2021/12/08 02:24:42;;;;;;;3.23;2.60;;;;;;;1.35;65.33;94207.69;4978141;28;20227;-85
2021/12/08 02:27:09;;;;;;;3.60;2.90;;;;;;;1.46;65.43;94209.16;4978822;28;20215;-85
2021/12/08 02:29:41;;;;;;;3.97;3.27;;;;;;;1.50;64.91;94210.44;4978135;28;20638;-83
2021/12/08 02:32:26;;;;;;;3.57;3.00;;;;;;;1.56;65.01;94216.63;4978051;28;20268;-83
2021/12/08 02:48:47;;;;;;;3.37;2.90;;;;;;;1.45;64.75;94215.19;4979405;28;20207;-83
2021/12/08 02:51:15;;;;;;;6.73;3.10;;;;;;;1.46;64.82;94204.09;4970345;28;20224;-83
2021/12/08 02:53:45;;;;;;;3.53;2.90;;;;;;;1.46;64.61;94198.22;4959372;28;20232;-83
2021/12/08 02:56:20;;;;;;;4.27;3.10;;;;;;;1.42;65.04;94202.81;4971791;28;20219;-84
2021/12/08 02:58:52;;;;;;;4.27;3.10;;;;;;;1.41;65.36;94218.97;4981849;28;20210;-84
2021/12/08 03:01:27;;;;;;;3.70;2.90;;;;;;;1.49;65.33;94224.06;4980815;28;20216;-83
2021/12/08 03:03:59;;;;;;;5.10;2.93;;;;;;;1.55;64.89;94228.50;4979987;28;20231;-83
2021/12/08 03:06:46;;;;;;;4.03;3.27;;;;;;;1.61;65.06;94211.88;4980099;28;20204;-83
2021/12/08 03:09:14;;;;;;;2.70;2.50;;;;;;;1.56;64.66;94198.88;4971384;28;20224;-84
2021/12/08 03:11:41;;;;;;;3.50;2.80;;;;;;;1.47;64.60;94193.00;4981210;28;20196;-83
2021/12/08 03:14:10;;;;;;;2.87;2.57;;;;;;;1.44;65.40;94198.38;4980922;28;20220;-83
2021/12/08 03:16:39;;;;;;;3.50;3.20;;;;;;;1.48;65.09;94192.06;4980395;28;20566;-83
2021/12/08 03:19:05;;;;;;;3.23;2.80;;;;;;;1.51;64.94;94199.34;4979697;28;20672;-84
2021/12/08 03:21:33;;;;;;;3.50;3.00;;;;;;;1.57;64.95;94198.72;4980056;28;20196;-84
2021/12/08 03:24:18;;;;;;;3.33;2.73;;;;;;;1.59;64.98;94190.94;4979770;28;20310;-84
2021/12/08 03:26:51;;;;;;;3.63;2.83;;;;;;;1.54;65.04;94193.94;4979677;28;20211;-83
2021/12/08 03:29:26;;;;;;;5.73;2.90;;;;;;;1.55;65.33;94200.59;4979787;28;20646;-84
2021/12/08 03:31:54;;;;;;;2.97;2.73;;;;;;;1.61;65.06;94197.47;4983202;28;20208;-84
2021/12/08 03:34:24;;;;;;;3.23;2.93;;;;;;;1.51;65.11;94189.22;4981941;28;20290;-83
2021/12/08 03:36:52;;;;;;;5.53;3.20;;;;;;;1.49;65.12;94192.84;4981714;28;20204;-83
2021/12/08 03:39:18;;;;;;;3.20;2.90;;;;;;;1.36;65.87;94195.81;4981966;28;20262;-83
2021/12/08 03:41:46;;;;;;;4.33;2.97;;;;;;;1.37;65.62;94190.59;4980693;28;20200;-84
2021/12/08 03:44:13;;;;;;;3.43;2.90;;;;;;;1.30;65.98;94191.38;4981798;28;20726;-84
2021/12/08 03:46:41;;;;;;;3.40;3.10;;;;;;;1.18;66.17;94198.47;4980777;28;20228;-84
2021/12/08 03:49:11;;;;;;;3.50;2.57;;;;;;;1.05;66.62;94185.44;4980496;28;20201;-84
2021/12/08 03:51:39;;;;;;;3.83;3.10;;;;;;;0.83;67.31;94170.78;4980052;28;20244;-84
2021/12/08 03:54:06;;;;;;;3.37;3.07;;;;;;;0.75;67.43;94176.63;4980660;28;20224;-83
2021/12/08 03:56:32;;;;;;;3.37;3.07;;;;;;;0.82;67.32;94181.84;4980141;28;20220;-83
2021/12/08 03:59:01;;;;;;;4.83;3.17;;;;;;;0.98;67.48;94186.97;4979377;28;20207;-83
2021/12/08 04:01:27;;;;;;;4.30;2.90;;;;;;;1.13;66.65;94189.75;4979806;28;20204;-83
2021/12/08 04:04:00;;;;;;;3.13;2.83;;;;;;;1.22;66.50;94174.41;4979421;28;20228;-83
2021/12/08 04:06:30;;;;;;;3.77;3.20;;;;;;;1.19;66.67;94179.78;4978602;28;20667;-83
2021/12/08 04:08:57;;;;;;;3.90;3.10;;;;;;;1.29;66.53;94182.97;4979154;28;20196;-83
2021/12/08 04:11:26;;;;;;;4.57;2.90;;;;;;;1.41;66.28;94196.16;4979278;28;20667;-83
2021/12/08 04:13:56;;;;;;;3.70;3.13;;;;;;;1.51;66.05;94212.03;4979298;28;20224;-84
2021/12/08 04:16:26;;;;;;;5.13;3.10;;;;;;;1.64;66.20;94219.19;4965100;28;20517;-84
2021/12/08 04:18:53;;;;;;;3.57;2.90;;;;;;;1.72;65.55;94224.28;4977733;28;20228;-83
2021/12/08 04:21:20;;;;;;;2.90;2.63;;;;;;;1.76;64.88;94225.53;4977636;28;20200;-83
2021/12/08 04:23:48;;;;;;;4.40;3.03;;;;;;;1.77;64.82;94222.06;4977314;28;20235;-83
2021/12/08 04:26:19;;;;;;;4.07;3.20;;;;;;;1.67;64.30;94217.13;4977857;28;20200;-83
2021/12/08 04:28:46;;;;;;;3.33;3.00;;;;;;;1.70;64.66;94221.91;4978151;28;20212;-83
2021/12/08 04:31:16;;;;;;;3.87;2.90;;;;;;;1.71;64.81;94222.69;4977567;28;20240;-83
2021/12/08 04:33:45;;;;;;;3.63;3.13;;;;;;;1.72;64.54;94219.22;4977746;28;20223;-83
2021/12/08 04:36:14;;;;;;;3.60;3.30;;;;;;;1.71;64.50;94217.63;4978429;28;20216;-83
2021/12/08 04:38:45;;;;;;;3.50;3.13;;;;;;;1.70;64.64;94209.22;4978484;28;20288;-83
2021/12/08 04:41:18;;;;;;;3.90;3.50;;;;;;;1.61;64.89;94214.41;4977950;28;20662;-83
2021/12/08 04:43:53;;;;;;;4.40;3.50;;;;;;;1.66;65.06;94217.28;4978517;28;20600;-84
2021/12/08 04:46:33;;;;;;;5.97;3.60;;;;;;;1.74;64.68;94223.16;4978071;28;20200;-83
2021/12/08 04:49:21;;;;;;;4.33;3.37;;;;;;;1.76;64.40;94220.47;4976807;28;20207;-83
2021/12/08 04:51:55;;;;;;;4.23;3.70;;;;;;;1.78;64.44;94225.38;4976698;28;20275;-83
2021/12/08 05:00:30;;;;;;;3.33;3.03;;;;;;;1.94;64.50;94246.50;4976625;28;20717;-83
2021/12/08 05:03:19;;;;;;;4.33;3.47;;;;;;;1.93;66.06;94249.97;4972261;28;20238;-83
2021/12/08 05:06:05;;;;;;;3.90;3.50;;;;;;;1.96;64.93;94243.81;4974192;28;20695;-81
2021/12/08 05:08:41;;;;;;;4.10;3.63;;;;;;;2.01;64.85;94242.41;4969486;28;20196;-82
2021/12/08 05:11:09;;;;;;;5.50;3.50;;;;;;;2.03;64.69;94234.63;4974811;28;20456;-83
2021/12/08 05:13:36;;;;;;;4.23;3.50;;;;;;;2.03;64.70;94230.34;4974354;28;20204;-82
2021/12/08 05:16:03;;;;;;;3.57;3.17;;;;;;;2.08;64.56;94234.94;4975451;28;20688;-82
2021/12/08 05:18:34;;;;;;;3.43;3.13;;;;;;;2.06;64.51;94237.66;4974939;28;20292;-82
2021/12/08 05:21:06;;;;;;;4.33;3.70;;;;;;;2.09;64.54;94236.53;4974438;28;20232;-82
2021/12/08 05:23:39;;;;;;;4.23;3.50;;;;;;;2.06;65.04;94232.56;4974803;28;20600;-82
2021/12/08 05:26:12;;;;;;;3.50;3.00;;;;;;;2.00;65.45;94237.47;4975818;28;20594;-83
2021/12/08 05:28:40;;;;;;;3.77;3.17;;;;;;;1.95;65.28;94243.00;4975734;28;20207;-82
2021/12/08 05:31:10;;;;;;;4.20;3.50;;;;;;;1.98;65.44;94241.91;4974436;28;20219;-84
2021/12/08 05:33:38;;;;;;;3.83;3.30;;;;;;;2.00;65.34;94255.25;4976894;28;20227;-84
2021/12/08 05:36:07;;;;;;;3.20;2.90;;;;;;;1.95;65.44;94258.25;4975190;28;20199;-84
2021/12/08 05:38:34;;;;;;;3.30;3.00;;;;;;;1.90;65.43;94255.41;4976323;28;20701;-84
2021/12/08 05:41:06;;;;;;;6.40;3.73;;;;;;;1.91;65.94;94257.00;4975414;28;20228;-83
2021/12/08 05:43:33;;;;;;;4.73;3.30;;;;;;;1.98;65.69;94254.59;4968710;28;20204;-83
2021/12/08 05:46:00;;;;;;;4.10;3.30;;;;;;;1.97;65.40;94243.66;4970432;28;20247;-84
2021/12/08 05:48:29;;;;;;;3.60;3.30;;;;;;;2.00;65.63;94247.63;4973268;28;20660;-82
2021/12/08 05:51:00;;;;;;;3.73;3.33;;;;;;;1.91;66.19;94251.91;4968503;28;20314;-83
2021/12/08 05:53:31;;;;;;;4.53;3.57;;;;;;;1.98;66.11;94263.00;4974302;28;20200;-84
2021/12/08 05:55:58;;;;;;;3.93;3.53;;;;;;;2.06;65.91;94259.69;4975212;28;20838;-84
2021/12/08 05:58:28;;;;;;;4.13;3.27;;;;;;;2.06;65.92;94257.16;4977105;28;20208;-84
2021/12/08 06:00:58;;;;;;;3.33;3.03;;;;;;;2.12;66.07;94258.28;4976886;28;20231;-84
2021/12/08 06:03:26;;;;;;;4.40;3.63;;;;;;;2.17;65.98;94249.22;4977880;28;20569;-84
2021/12/08 06:05:56;;;;;;;3.90;3.30;;;;;;;2.20;66.11;94251.44;4976843;28;20231;-83
2021/12/08 06:08:24;;;;;;;3.50;3.20;;;;;;;2.22;65.90;94256.38;4976489;28;20211;-84
2021/12/08 06:10:51;;;;;;;5.27;3.53;;;;;;;2.21;66.17;94263.19;4974677;28;20251;-83
2021/12/08 06:13:19;;;;;;;4.10;3.40;;;;;;;2.23;66.12;94261.28;4974629;28;20200;-84
2021/12/08 06:15:48;;;;;;;3.37;3.00;;;;;;;2.19;65.95;94249.06;4972685;28;20208;-84
2021/12/08 06:18:15;;;;;;;3.30;3.00;;;;;;;2.15;66.03;94233.34;4956869;28;20204;-83
2021/12/08 06:20:42;;;;;;;3.63;2.90;;;;;;;2.26;66.01;94244.94;4955218;28;20268;-83
2021/12/08 06:23:10;;;;;;;2.93;2.73;;;;;;;2.21;65.68;94244.63;4963953;28;20200;-83
2021/12/08 06:25:38;;;;;;;2.73;2.53;;;;;;;2.25;65.89;94245.91;4956109;28;20739;-83
2021/12/08 06:28:07;;;;;;;3.10;2.80;;;;;;;2.33;66.03;94244.13;4956484;28;20207;-83
2021/12/08 06:30:36;;;;;;;3.47;2.83;;;;;;;2.42;65.61;94250.03;4957258;28;20238;-82
2021/12/08 06:33:03;;;;;;;3.07;2.77;;;;;;;2.47;65.57;94247.00;4963218;28;20210;-82
2021/12/08 06:35:34;;;;;;;3.63;3.03;;;;;;;2.53;65.36;94238.72;4977793;28;20223;-83
2021/12/08 06:38:00;;;;;;;3.67;2.80;;;;;;;2.52;65.35;94244.75;4978000;28;20204;-83
2021/12/08 06:40:32;;;;;;;3.70;2.90;;;;;;;2.52;65.27;94232.06;4977844;28;20240;-83
2021/12/08 06:43:04;;;;;;;4.90;2.97;;;;;;;2.54;67.29;94230.94;4976533;28;20200;-83
2021/12/08 06:45:36;;;;;;;6.13;3.00;;;;;;;2.48;66.02;94249.41;4977908;28;20227;-83
2021/12/08 06:48:05;;;;;;;3.30;3.00;;;;;;;2.52;66.35;94247.31;4981904;28;20671;-83
2021/12/08 06:50:38;;;;;;;5.10;2.67;;;;;;;2.55;65.49;94237.63;4977303;28;20238;-84
2021/12/08 06:53:05;;;;;;;5.80;2.63;;;;;;;2.61;65.72;94220.94;4970339;28;20201;-83
2021/12/08 06:55:35;;;;;;;4.03;2.97;;;;;;;2.57;66.61;94217.94;4975761;28;20216;-83
2021/12/08 06:58:06;;;;;;;3.30;2.80;;;;;;;2.69;66.22;94208.25;4977178;28;20208;-83
2021/12/08 07:00:49;;;;;;;3.37;3.03;;;;;;;2.66;67.19;94216.19;4977745;28;20224;-83
2021/12/08 07:03:32;;;;;;;3.20;2.90;;;;;;;2.66;67.07;94218.72;4962412;28;20228;-83
2021/12/08 07:06:12;;;;;;;4.07;3.13;;;;;;;2.71;67.35;94219.81;4977093;28;20242;-83
2021/12/08 07:08:45;;;;;;;4.57;3.30;;;;;;;2.77;66.77;94219.16;4976741;28;20275;-83
2021/12/08 07:11:14;;;;;;;3.80;3.10;;;;;;;2.80;66.52;94222.34;4976649;28;20232;-83
2021/12/08 07:13:41;;;;;;;3.47;3.17;;;;;;;2.84;66.82;94221.84;4977753;28;20235;-83
2021/12/08 07:16:13;;;;;;;3.73;2.87;;;;;;;2.84;66.67;94231.22;4973208;28;20197;-83
2021/12/08 07:18:52;;;;;;;3.20;2.80;;;;;;;2.88;66.60;94235.84;4962640;28;20572;-83
2021/12/08 07:21:24;;;;;;;4.23;2.90;;;;;;;2.84;66.31;94243.94;4976721;28;20216;-83
2021/12/08 07:23:56;;;;;;;5.80;2.50;;;;;;;2.85;66.58;94240.44;4977076;28;20228;-83
2021/12/08 07:26:27;;;;;;;2.97;2.60;;;;;;;2.83;66.48;94243.16;4973906;28;20692;-83
2021/12/08 07:28:55;;;;;;;2.63;2.40;;;;;;;2.88;66.38;94245.19;4970676;28;20204;-83
2021/12/08 07:31:29;;;;;;;4.13;2.33;;;;;;;2.87;66.04;94238.53;4971434;28;20642;-83
2021/12/08 07:34:03;;;;;;;3.27;2.50;;;;;;;2.83;66.89;94235.53;4972537;28;20240;-83
2021/12/08 07:36:30;;;;;;;3.50;2.60;;;;;;;2.88;66.37;94238.38;4974142;28;20646;-83
2021/12/08 07:38:59;;;;;;;2.60;2.40;;;;;;;2.93;66.49;94231.03;4973766;28;20203;-83
2021/12/08 07:41:30;;;;;;;3.73;2.53;;;;;;;2.92;66.70;94233.72;4969938;28;20208;-83
2021/12/08 07:43:59;;;;;;;3.97;3.17;;;;;;;2.96;66.21;94228.16;4975819;28;20228;-83
2021/12/08 07:46:32;;;;;;;3.10;2.60;;;;;;;3.02;65.83;94231.81;4976772;28;20751;-83
2021/12/08 07:49:02;;;;;;;5.87;2.87;;;;;;;3.06;65.80;94217.81;4973927;28;20208;-83
2021/12/08 07:51:34;;;;;;;4.97;2.93;;;;;;;3.10;65.64;94221.59;4973953;28;20212;-83
2021/12/08 07:54:05;;;;;;;3.80;2.80;;;;;;;3.13;65.93;94224.63;4976411;28;20240;-83
2021/12/08 07:56:33;;;;;;;4.67;3.27;;;;;;;3.17;66.24;94226.84;4975770;28;20196;-83
2021/12/08 07:59:03;;;;;;;5.27;2.90;;;;;;;3.15;66.50;94223.66;4970438;28;20208;-82
2021/12/08 08:01:34;;;;;;;5.10;3.00;;;;;;;3.20;68.12;94212.03;4972188;28;20211;-82
2021/12/08 08:04:02;;;;;;;5.27;2.97;;;;;;;3.21;68.51;94221.25;4976702;28;20589;-82
2021/12/08 08:06:34;;;;;;;4.23;3.00;;;;;;;3.24;68.98;94212.50;4975083;28;20648;-82
2021/12/08 08:09:01;;;;;;;6.63;3.10;;;;;;;3.23;68.63;94205.84;4979011;28;20192;-83
2021/12/08 08:11:31;;;;;;;3.57;3.00;;;;;;;3.21;69.53;94212.84;4985737;28;20655;-83
2021/12/08 08:13:59;;;;;;;4.13;3.00;;;;;;;3.24;69.83;94207.44;4975719;28;20220;-83
2021/12/08 08:16:31;;;;;;;3.63;2.80;;;;;;;3.24;70.25;94205.69;4974304;28;20207;-83
2021/12/08 08:19:09;;;;;;;3.30;2.90;;;;;;;3.25;70.08;94199.63;4966405;28;20204;-83
2021/12/08 08:21:38;;;;;;;3.40;2.83;;;;;;;3.28;70.21;94185.78;4979094;28;20213;-83
2021/12/08 08:24:07;;;;;;;5.50;3.07;;;;;;;3.32;70.77;94177.66;4977673;28;20242;-83
2021/12/08 08:26:35;;;;;;;4.13;3.03;;;;;;;3.37;70.85;94169.53;4976679;28;20224;-83
2021/12/08 08:29:04;;;;;;;3.50;3.13;;;;;;;3.37;70.81;94161.88;4976360;28;20208;-83
2021/12/08 08:31:34;;;;;;;3.67;3.33;;;;;;;3.42;70.91;94159.66;4976530;28;20270;-83
2021/12/08 08:34:03;;;;;;;4.73;3.40;;;;;;;3.44;70.67;94152.63;4976331;28;20227;-83
2021/12/08 08:36:37;;;;;;;5.53;3.30;;;;;;;3.45;71.24;94149.94;4974413;28;20204;-83
2021/12/08 08:39:09;;;;;;;6.60;3.53;;;;;;;3.49;70.74;94140.19;4974860;28;20199;-83
2021/12/08 08:41:40;;;;;;;4.67;3.03;;;;;;;3.49;71.26;94140.19;4974872;28;20200;-83
2021/12/08 08:44:10;;;;;;;4.20;3.30;;;;;;;3.51;71.35;94140.81;4976256;28;20230;-83
2021/12/08 08:46:40;;;;;;;3.97;3.50;;;;;;;3.44;71.53;94152.63;4975003;28;20583;-83
2021/12/08 08:49:11;;;;;;;3.67;3.37;;;;;;;3.27;71.95;94151.91;4971722;28;20200;-83
2021/12/08 08:51:41;;;;;;;5.23;3.57;;;;;;;3.29;71.94;94151.75;4976418;28;20208;-83
2021/12/08 08:54:14;;;;;;;3.50;2.90;;;;;;;3.27;71.79;94153.69;4974648;28;20223;-83
2021/12/08 08:56:46;;;;;;;3.97;2.83;;;;;;;3.26;71.75;94158.00;4974406;28;20259;-83
2021/12/08 08:59:16;;;;;;;3.70;3.00;;;;;;;3.29;71.77;94156.84;4974101;28;20232;-83
2021/12/08 09:01:46;;;;;;;4.37;2.97;;;;;;;3.34;72.15;94162.22;4975337;28;20259;-82
2021/12/08 09:04:21;;;;;;;3.90;3.03;;;;;;;3.28;72.58;94158.59;4974821;28;20375;-83
2021/12/08 09:06:50;;;;;;;4.43;3.27;;;;;;;3.12;73.99;94164.53;4974212;28;20219;-83
2021/12/08 09:09:23;;;;;;;7.30;3.77;;;;;;;3.05;74.71;94170.47;4973321;28;20236;-83
2021/12/08 09:11:53;;;;;;;3.80;3.20;;;;;;;3.12;74.03;94148.50;4974396;28;20205;-83
2021/12/08 09:14:24;;;;;;;3.97;3.10;;;;;;;3.25;73.41;94146.22;4971266;28;20236;-83
2021/12/08 09:16:54;;;;;;;4.77;2.90;;;;;;;3.37;72.99;94146.63;4974782;28;20192;-83
2021/12/08 09:19:25;;;;;;;5.40;3.20;;;;;;;3.48;72.90;94143.69;4973901;28;20231;-83
2021/12/08 09:22:01;;;;;;;6.03;3.30;;;;;;;3.56;72.50;94137.78;4975252;28;20209;-83
2021/12/08 09:24:37;;;;;;;3.70;3.30;;;;;;;3.59;72.78;94143.31;4976095;28;20231;-83
2021/12/08 09:27:09;;;;;;;5.17;3.50;;;;;;;3.59;72.66;94145.84;4974604;28;20219;-83
2021/12/08 09:29:43;;;;;;;4.73;3.40;;;;;;;3.61;72.69;94150.78;4973333;28;20224;-83
2021/12/08 09:32:14;;;;;;;4.53;3.30;;;;;;;3.68;72.22;94156.75;4974845;28;20202;-83
2021/12/08 09:34:54;;;;;;;8.33;3.70;;;;;;;3.67;72.22;94155.97;4974273;28;20243;-83
2021/12/08 09:37:23;;;;;;;3.67;3.07;;;;;;;3.71;72.37;94156.44;4973262;28;20200;-82
2021/12/08 09:39:53;;;;;;;4.90;3.27;;;;;;;3.73;72.06;94160.38;4973799;28;20239;-83
2021/12/08 09:42:25;;;;;;;7.30;3.40;;;;;;;3.75;72.38;94155.13;4976017;28;20207;-83
2021/12/08 09:44:57;;;;;;;5.50;3.03;;;;;;;3.80;73.71;94147.78;4976184;28;20220;-83
2021/12/08 09:47:28;;;;;;;4.50;2.87;;;;;;;3.78;73.56;94142.88;4965065;28;20692;-83
2021/12/08 09:49:57;;;;;;;3.80;3.03;;;;;;;3.79;73.70;94130.94;4973318;28;20282;-83
2021/12/08 09:52:27;;;;;;;5.83;3.30;;;;;;;3.82;72.66;94133.13;4975647;28;20200;-83
2021/12/08 09:54:54;;;;;;;7.50;3.33;;;;;;;3.84;71.99;94131.22;4974877;28;20227;-83
2021/12/08 09:57:20;;;;;;;7.93;4.27;;;;;;;3.70;70.69;94132.72;4975400;28;20204;-83
2021/12/08 09:59:47;;;;;;;7.53;3.90;;;;;;;3.65;70.24;94135.00;4973517;28;20231;-83
2021/12/08 10:02:18;;;;;;;6.37;3.43;;;;;;;3.70;70.67;94129.41;4974615;28;20208;-83
2021/12/08 10:04:44;;;;;;;5.83;3.70;;;;;;;3.76;70.73;94104.06;4973325;28;20270;-83
2021/12/08 10:07:13;;;;;;;7.97;4.20;;;;;;;3.75;71.45;94094.06;4974866;28;20216;-83
2021/12/08 10:09:40;;;;;;;5.10;3.37;;;;;;;3.80;71.65;94095.13;4974391;28;20228;-83
2021/12/08 10:12:07;;;;;;;6.90;3.97;;;;;;;3.84;71.86;94089.69;4974688;28;20200;-83
2021/12/08 10:14:34;;;;;;;5.47;3.97;;;;;;;3.87;71.78;94079.94;4974847;28;20220;-83
2021/12/08 10:17:01;;;;;;;5.10;3.77;;;;;;;3.92;72.36;94070.03;4975024;28;20220;-83
2021/12/08 10:19:28;;;;;;;5.53;3.53;;;;;;;3.77;74.23;94059.84;4974943;28;20596;-83
2021/12/08 10:21:54;;;;;;;5.97;3.90;;;;;;;3.86;73.19;94060.53;4974323;28;20196;-83
2021/12/08 10:24:24;;;;;;;5.50;4.27;;;;;;;3.96;73.55;94065.41;4973316;28;20721;-83
2021/12/08 10:26:52;;;;;;;4.87;3.40;;;;;;;3.94;74.34;94073.22;4972748;28;20224;-83
2021/12/08 10:29:24;;;;;;;10.33;3.87;;;;;;;4.00;74.29;94056.44;4973248;28;20228;-83
2021/12/08 10:31:53;;;;;;;7.57;3.93;;;;;;;4.05;74.09;94052.41;4974774;28;20633;-83
2021/12/08 10:34:24;;;;;;;7.43;4.07;;;;;;;4.07;74.34;94044.59;4973506;28;20222;-83
2021/12/08 10:36:55;;;;;;;6.23;4.13;;;;;;;4.09;74.88;94052.84;4973036;28;20227;-83
2021/12/08 10:39:27;;;;;;;7.43;3.90;;;;;;;4.11;74.87;94059.34;4972575;28;20649;-83
2021/12/08 10:42:08;;;;;;;5.83;3.80;;;;;;;4.12;75.44;94062.69;4974371;28;20208;-82
2021/12/08 10:44:43;;;;;;;6.77;4.57;;;;;;;3.95;75.83;94053.63;4974142;28;20710;-82
2021/12/08 10:47:12;;;;;;;6.87;4.10;;;;;;;3.91;75.48;94060.81;4973502;28;20224;-82
2021/12/08 10:55:31;;;;;;;7.77;4.33;;;;;;;4.01;76.74;94053.75;4899565;29;20262;-82
2021/12/08 10:57:58;;;;;;;5.50;4.07;;;;;;;4.02;76.28;94047.69;4898641;29;20191;-82
2021/12/08 11:00:27;;;;;;;5.90;4.33;;;;;;;4.01;76.85;94041.00;4922291;28;20518;-83
2021/12/08 11:02:56;;;;;;;8.13;4.23;;;;;;;4.04;76.86;94042.41;4955111;29;20205;-82
2021/12/08 11:05:47;;;;;;;9.43;4.87;;;;;;;4.00;77.88;94051.38;4955304;29;20228;-82
2021/12/08 11:08:18;;;;;;;10.27;5.67;;;;;;;4.00;77.55;94048.81;4943000;29;20213;-83
2021/12/08 11:10:51;;;;;;;10.17;5.43;;;;;;;4.01;77.59;94047.84;4971190;28;20220;-82
2021/12/08 11:13:21;;;;;;;7.83;4.93;;;;;;;3.98;77.40;94043.91;4974780;28;20200;-82
2021/12/08 11:15:57;;;;;;;6.53;5.40;;;;;;;4.00;77.76;94062.34;4974189;28;20223;-82
2021/12/08 11:18:26;;;;;;;9.00;4.70;;;;;;;4.03;77.53;94056.91;4978158;28;20215;-82
2021/12/08 11:20:55;;;;;;;11.17;5.10;;;;;;;4.07;77.69;94053.03;4977875;28;20251;-82
2021/12/08 11:23:42;;;;;;;9.23;6.23;;;;;;;4.11;77.41;94051.72;4977492;28;20291;-83
2021/12/08 11:26:26;;;;;;;9.80;6.60;;;;;;;4.12;80.52;94047.41;4978021;28;20228;-83
2021/12/08 11:28:59;;;;;;;16.00;5.50;;;;;;;4.24;79.30;94029.94;4975672;28;20271;-82
2021/12/08 11:31:29;;;;;;;9.13;6.70;;;;;;;4.18;78.31;94012.81;4976826;28;20255;-82
2021/12/08 11:34:00;;;;;;;10.37;7.27;;;;;;;4.12;78.29;93991.38;4977748;28;20279;-82
2021/12/08 11:36:28;;;;;;;10.33;5.60;;;;;;;3.99;78.71;94001.41;4976464;28;20192;-82
2021/12/08 11:38:55;;;;;;;7.10;5.63;;;;;;;3.89;78.27;93998.31;4976529;28;20192;-82
2021/12/08 11:41:34;;;;;;;43.47;27.53;;;;;;;3.86;87.53;94001.19;4977632;28;20208;-82
2021/12/08 11:44:03;;;;;;;11.70;8.60;;;;;;;4.28;96.43;94014.13;4979108;28;20228;-83
2021/12/08 11:46:29;;;;;;;6.63;5.20;;;;;;;4.23;79.67;94020.72;4977552;28;20224;-82
2021/12/08 11:49:06;;;;;;;5.83;4.70;;;;;;;4.14;79.30;94018.25;4976040;28;20204;-82
2021/12/08 11:51:48;;;;;;;8.40;5.00;;;;;;;4.13;78.32;94015.88;4977408;28;20212;-82
2021/12/08 11:54:24;;;;;;;9.57;4.90;;;;;;;4.06;78.16;94025.97;4977349;28;20224;-83
2021/12/08 11:56:53;;;;;;;7.90;5.57;;;;;;;3.91;80.15;94009.91;4977549;28;20282;-82
2021/12/08 11:59:19;;;;;;;9.57;6.00;;;;;;;3.81;87.61;94011.94;4975763;28;20243;-82
2021/12/08 12:01:47;;;;;;;10.47;5.50;;;;;;;3.92;88.16;94010.69;4976290;28;20767;-82
2021/12/08 12:04:13;;;;;;;6.80;5.10;;;;;;;4.06;80.75;93997.97;4972561;28;20283;-82
2021/12/08 12:06:40;;;;;;;6.93;4.70;;;;;;;4.15;79.48;93983.41;4975273;28;20568;-82
2021/12/08 12:09:08;;;;;;;7.27;5.33;;;;;;;4.20;78.49;93993.84;4975347;28;20208;-82
2021/12/08 12:11:35;;;;;;;6.13;5.50;;;;;;;4.14;78.66;94002.97;4975702;28;20206;-82
2021/12/08 12:14:04;;;;;;;6.80;5.03;;;;;;;3.99;79.92;94001.41;4976760;28;20231;-82
2021/12/08 12:16:31;;;;;;;6.13;5.03;;;;;;;3.98;79.53;94010.00;4976016;28;20690;-82
2021/12/08 12:19:03;;;;;;;6.47;5.07;;;;;;;3.99;79.44;94012.38;4977117;28;20211;-82
2021/12/08 12:21:38;;;;;;;6.97;4.83;;;;;;;4.01;79.06;93999.47;4976505;28;20211;-82
2021/12/08 12:24:18;;;;;;;7.47;5.20;;;;;;;3.98;79.86;93990.44;4976607;28;20235;-82
2021/12/08 12:26:53;;;;;;;6.90;5.27;;;;;;;4.01;79.74;93990.09;4975685;28;20243;-82
2021/12/08 12:29:37;;;;;;;6.50;5.13;;;;;;;4.03;79.48;93980.50;4976473;28;20251;-82